Time;durP1;ratioP1;P1;durP2;ratioP2;P2;SDS_P1;SDS_P2;PMS_P1;PMS_P2;Temp;Humidity;BMP_temperature;BMP_pressure;BME280_temperature;BME280_humidity;BME280_pressure;Samples;Min_cycle;Max_cycle;Signal;HPM_P1;HPM_P2
2023/01/17 00:02:14;;;;;;;4.40;0.43;;;3.70;99.90;;;;;;5038775;28;20444;-76
2023/01/17 00:10:12;;;;;;;4.38;0.00;;;3.70;99.90;;;;;;5039024;28;20052;-76
2023/01/17 00:12:38;;;;;;;2.95;0.05;;;3.60;99.90;;;;;;5038648;28;20403;-77
2023/01/17 00:15:04;;;;;;;6.32;0.10;;;3.70;99.90;;;;;;5020998;28;20392;-77
2023/01/17 00:17:30;;;;;;;2.35;0.17;;;3.70;99.90;;;;;;5037536;28;20029;-76
2023/01/17 01:35:21;;;;;;;2.28;0.00;;;1.40;99.90;;;;;;5037085;28;20087;-76
2023/01/17 01:37:47;;;;;;;0.25;0.17;;;1.40;99.90;;;;;;5036431;28;20102;-76
2023/01/17 01:40:13;;;;;;;1.02;0.00;;;1.30;99.90;;;;;;5018773;28;20029;-76
2023/01/17 01:42:49;;;;;;;3.22;0.00;;;1.30;99.90;;;;;;5035854;28;20427;-76
2023/01/17 01:45:18;;;;;;;2.20;0.10;;;1.30;99.90;;;;;;5036572;28;20108;-76
2023/01/17 01:47:44;;;;;;;1.25;0.00;;;1.40;99.90;;;;;;5035660;28;20030;-76
2023/01/17 01:50:11;;;;;;;0.20;0.00;;;1.30;99.90;;;;;;5018033;28;20032;-76
2023/01/17 01:52:42;;;;;;;0.75;0.30;;;1.40;99.90;;;;;;5036049;28;20061;-76
2023/01/17 01:55:15;;;;;;;1.10;0.00;;;1.40;99.90;;;;;;5035892;28;20029;-76
2023/01/17 01:57:45;;;;;;;2.40;0.00;;;1.50;99.90;;;;;;5036320;28;20083;-76
2023/01/17 02:00:35;;;;;;;1.27;0.00;;;1.60;99.90;;;;;;5018407;28;20026;-76
2023/01/17 02:03:06;;;;;;;0.65;0.00;;;1.80;99.90;;;;;;5024407;28;20113;-76
2023/01/17 02:05:33;;;;;;;5.03;0.00;;;1.90;99.90;;;;;;5018157;28;20071;-76
2023/01/17 02:08:20;;;;;;;2.83;0.00;;;2.00;99.90;;;;;;5017921;28;20063;-76
2023/01/17 02:10:46;;;;;;;3.55;0.00;;;2.00;99.90;;;;;;5035847;28;20026;-76
2023/01/17 02:13:15;;;;;;;0.68;0.00;;;2.10;99.90;;;;;;5035910;28;20432;-76
2023/01/17 02:15:43;;;;;;;;;;;2.00;99.90;;;;;;5018562;28;20013;-76
2023/01/17 02:18:20;;;;;;;2.33;0.00;;;2.00;99.90;;;;;;5017964;28;19913;-76
2023/01/17 02:20:57;;;;;;;1.08;0.00;;;2.00;99.90;;;;;;5036645;28;20041;-76
2023/01/17 02:23:31;;;;;;;5.05;0.00;;;2.10;99.90;;;;;;5018131;28;20053;-77
2023/01/17 02:26:35;;;;;;;1.23;0.00;;;2.00;99.90;;;;;;5018264;28;20022;-77
2023/01/17 02:29:10;;;;;;;0.30;0.00;;;;;;;;;;5036836;28;20068;-77
2023/01/17 02:31:49;;;;;;;4.40;0.00;;;2.00;99.90;;;;;;5018303;28;20030;-77
2023/01/17 02:34:27;;;;;;;1.15;0.00;;;2.00;99.90;;;;;;5036633;28;20082;-77
2023/01/17 02:36:56;;;;;;;3.50;0.00;;;1.90;99.90;;;;;;5035913;28;20022;-77
2023/01/17 02:39:28;;;;;;;1.25;0.00;;;1.80;99.90;;;;;;5018150;28;20030;-77
2023/01/17 02:42:00;;;;;;;4.35;0.00;;;1.70;99.90;;;;;;5036123;28;20021;-77
2023/01/17 02:44:25;;;;;;;5.15;0.00;;;1.70;99.90;;;;;;5035131;28;20040;-76
2023/01/17 02:46:55;;;;;;;11.38;0.75;;;1.60;99.90;;;;;;5017947;28;20059;-76
2023/01/17 02:49:27;;;;;;;1.25;0.00;;;1.50;99.90;;;;;;5017649;28;20030;-76
2023/01/17 02:52:21;;;;;;;1.70;0.00;;;1.50;99.90;;;;;;5035903;28;20380;-76
2023/01/17 02:55:06;;;;;;;0.13;0.00;;;1.40;99.90;;;;;;5036257;28;20021;-76
2023/01/17 02:58:14;;;;;;;4.35;0.13;;;1.40;99.90;;;;;;5035217;28;20032;-76
2023/01/17 03:00:55;;;;;;;3.08;0.20;;;1.40;99.90;;;;;;4938631;29;20520;-76
2023/01/17 03:03:38;;;;;;;5.25;0.10;;;1.30;99.90;;;;;;4954957;29;20530;-76
2023/01/17 03:06:10;;;;;;;1.58;0.00;;;1.30;99.90;;;;;;4994905;28;20072;-76
2023/01/17 03:08:43;;;;;;;1.40;0.22;;;1.30;99.90;;;;;;5017106;28;20040;-76
2023/01/17 03:11:09;;;;;;;3.92;0.00;;;1.20;99.90;;;;;;5016856;28;20037;-76
2023/01/17 03:13:36;;;;;;;5.88;0.00;;;1.20;99.90;;;;;;5034447;28;20076;-76
2023/01/17 03:16:12;;;;;;;3.95;0.00;;;1.20;99.90;;;;;;5017036;28;20503;-76
2023/01/17 03:18:38;;;;;;;6.75;0.05;;;1.30;99.90;;;;;;5034879;28;20021;-76
2023/01/17 03:21:04;;;;;;;5.07;0.00;;;1.40;99.90;;;;;;5034187;28;20021;-76
2023/01/17 03:23:32;;;;;;;1.33;0.00;;;1.40;99.90;;;;;;5033554;28;20022;-76
2023/01/17 03:25:57;;;;;;;3.10;0.00;;;1.40;99.90;;;;;;5034847;28;20104;-76
2023/01/17 03:28:25;;;;;;;2.78;0.25;;;1.40;99.90;;;;;;5034777;28;20057;-76
2023/01/17 03:30:54;;;;;;;3.77;0.00;;;1.40;99.90;;;;;;5034041;28;20080;-76
2023/01/17 03:33:20;;;;;;;1.40;0.00;;;1.30;99.90;;;;;;5033776;28;20420;-76
2023/01/17 03:35:46;;;;;;;2.10;0.00;;;1.30;99.90;;;;;;5016666;28;20029;-76
2023/01/17 03:38:15;;;;;;;1.75;0.25;;;1.20;99.90;;;;;;5017139;28;20095;-76
2023/01/17 03:40:41;;;;;;;0.22;0.00;;;1.20;99.90;;;;;;5016786;28;20026;-76
2023/01/17 03:43:07;;;;;;;2.03;0.17;;;1.20;99.90;;;;;;5034462;28;20501;-77
2023/01/17 03:45:33;;;;;;;4.72;0.32;;;1.20;99.90;;;;;;5034518;28;20140;-77
2023/01/17 03:47:59;;;;;;;5.40;0.00;;;1.10;99.90;;;;;;5034722;28;20045;-77
2023/01/17 03:50:25;;;;;;;3.15;0.03;;;1.10;99.90;;;;;;5034740;28;20025;-77
2023/01/17 03:52:50;;;;;;;4.53;0.03;;;1.10;99.90;;;;;;5016337;28;20021;-77
2023/01/17 03:55:18;;;;;;;1.17;0.40;;;1.10;99.90;;;;;;5033661;28;20032;-77
2023/01/17 03:57:43;;;;;;;3.63;0.00;;;1.10;99.90;;;;;;5033858;28;20033;-77
2023/01/17 04:00:10;;;;;;;2.50;0.00;;;1.20;99.90;;;;;;5016116;28;20370;-77
2023/01/17 04:02:36;;;;;;;4.03;0.00;;;1.20;99.90;;;;;;5033661;28;20026;-77
2023/01/17 04:05:04;;;;;;;2.22;0.00;;;1.20;99.90;;;;;;5033226;28;20025;-77
2023/01/17 04:07:29;;;;;;;5.23;0.10;;;1.30;99.90;;;;;;5034109;28;20076;-77
2023/01/17 04:09:55;;;;;;;1.42;0.00;;;1.40;99.90;;;;;;5015762;28;20041;-77
2023/01/17 04:12:20;;;;;;;6.32;0.00;;;1.40;99.90;;;;;;5033777;28;20040;-76
2023/01/17 04:14:47;;;;;;;1.45;0.00;;;1.40;99.90;;;;;;5033120;28;20017;-76
2023/01/17 04:17:13;;;;;;;2.10;0.22;;;1.30;99.90;;;;;;5015538;28;20025;-76
2023/01/17 04:19:41;;;;;;;3.35;0.00;;;1.30;99.90;;;;;;5033328;28;20117;-76
2023/01/17 04:22:07;;;;;;;2.27;0.30;;;1.20;99.90;;;;;;5033955;28;20057;-77
2023/01/17 04:24:36;;;;;;;4.72;0.00;;;1.20;99.90;;;;;;5015626;28;20268;-76
2023/01/17 04:27:08;;;;;;;7.35;0.00;;;1.20;99.90;;;;;;5033573;28;20049;-76
2023/01/17 04:29:35;;;;;;;4.82;0.00;;;1.20;99.90;;;;;;5034566;28;20033;-76
2023/01/17 04:32:00;;;;;;;3.85;0.47;;;1.00;99.90;;;;;;5034594;28;20030;-76
2023/01/17 04:34:29;;;;;;;0.65;0.17;;;1.10;99.90;;;;;;5016381;28;20078;-76
2023/01/17 04:36:54;;;;;;;2.78;0.22;;;1.00;99.90;;;;;;5037658;28;20033;-76
2023/01/17 04:39:22;;;;;;;4.15;0.00;;;1.00;99.90;;;;;;5019575;28;20040;-76
2023/01/17 04:41:48;;;;;;;2.80;0.00;;;1.00;99.90;;;;;;5037269;28;20026;-76
2023/01/17 04:44:16;;;;;;;2.40;0.00;;;0.90;99.90;;;;;;5020033;28;20013;-76
2023/01/17 04:46:42;;;;;;;1.75;0.03;;;0.90;99.90;;;;;;5037852;28;20111;-76
2023/01/17 04:49:07;;;;;;;2.65;0.00;;;0.90;99.90;;;;;;5018766;28;20069;-76
2023/01/17 04:51:36;;;;;;;0.05;0.00;;;0.80;99.90;;;;;;5037427;28;20052;-76
2023/01/17 04:54:03;;;;;;;1.58;0.20;;;0.80;99.90;;;;;;5019307;28;20025;-76
2023/01/17 04:56:29;;;;;;;3.95;0.00;;;0.80;99.90;;;;;;5037087;28;20065;-76
2023/01/17 04:58:58;;;;;;;4.22;0.20;;;0.60;99.90;;;;;;5037205;28;20028;-76
2023/01/17 05:01:27;;;;;;;2.47;0.00;;;0.80;99.90;;;;;;5019717;28;20038;-76
2023/01/17 05:03:52;;;;;;;3.00;0.00;;;0.80;99.90;;;;;;5037919;28;20024;-76
2023/01/17 05:06:18;;;;;;;5.93;0.00;;;0.80;99.90;;;;;;5019318;28;20038;-76
2023/01/17 05:08:43;;;;;;;3.83;0.22;;;0.70;99.90;;;;;;5037049;28;20040;-77
2023/01/17 05:11:09;;;;;;;3.17;0.00;;;0.80;99.90;;;;;;5036801;28;20037;-77
2023/01/17 05:13:34;;;;;;;4.55;0.00;;;0.70;99.90;;;;;;5037167;28;20542;-76
2023/01/17 05:16:03;;;;;;;3.75;0.40;;;0.70;99.90;;;;;;5019138;28;20025;-76
2023/01/17 05:18:29;;;;;;;1.30;0.00;;;0.70;99.90;;;;;;5037567;28;20473;-76
2023/01/17 05:21:03;;;;;;;3.20;0.00;;;0.70;99.90;;;;;;5036599;28;20048;-76
2023/01/17 05:23:28;;;;;;;3.50;0.00;;;0.60;99.90;;;;;;5036853;28;20057;-76
2023/01/17 05:25:54;;;;;;;3.33;0.32;;;0.60;99.90;;;;;;5036783;28;20037;-76
2023/01/17 05:28:22;;;;;;;1.58;0.05;;;0.60;99.90;;;;;;5036521;28;20036;-76
2023/01/17 05:30:47;;;;;;;3.75;0.10;;;0.60;99.90;;;;;;5019014;28;20108;-77
2023/01/17 05:33:13;;;;;;;4.30;0.40;;;0.60;99.90;;;;;;5036247;28;20484;-76
2023/01/17 05:35:39;;;;;;;1.27;0.00;;;0.60;99.90;;;;;;5036356;28;20035;-76
2023/01/17 05:38:08;;;;;;;2.67;0.10;;;0.60;99.90;;;;;;5035877;28;20079;-76
2023/01/17 05:40:34;;;;;;;;;;;0.70;99.90;;;;;;5018103;28;20036;-76
2023/01/17 05:43:03;;;;;;;;;;;0.80;99.90;;;;;;5018129;28;19931;-76
2023/01/17 05:45:29;;;;;;;;;;;0.80;99.90;;;;;;5036903;28;20279;-77
2023/01/17 05:47:55;;;;;;;;;;;0.90;99.90;;;;;;5035927;28;19905;-76
2023/01/17 05:50:22;;;;;;;;;;;0.90;99.90;;;;;;5018292;28;19930;-76
2023/01/17 05:52:48;;;;;;;;;;;1.00;99.90;;;;;;5036746;28;19905;-76
2023/01/17 05:55:14;;;;;;;;;;;1.00;99.90;;;;;;5036770;28;19905;-76
2023/01/17 05:57:42;;;;;;;;;;;1.00;99.90;;;;;;5036787;28;20414;-76
2023/01/17 06:00:08;;;;;;;;;;;1.10;99.90;;;;;;5018978;28;20406;-76
2023/01/17 06:02:39;;;;;;;;;;;1.10;99.90;;;;;;5037442;28;19905;-77
2023/01/17 06:05:08;;;;;;;;;;;1.10;99.90;;;;;;5018563;28;19905;-77
2023/01/17 06:07:33;;;;;;;;;;;1.10;99.90;;;;;;5035410;28;20343;-77
2023/01/17 06:10:02;;;;;;;;;;;0.90;99.90;;;;;;5036461;28;19909;-77
2023/01/17 06:12:28;;;;;;;;;;;1.10;99.90;;;;;;5036517;28;19912;-77
2023/01/17 06:14:53;;;;;;;;;;;1.10;99.90;;;;;;5018627;28;20000;-76
2023/01/17 06:17:19;;;;;;;;;;;1.10;99.90;;;;;;5018680;28;19909;-76
2023/01/17 06:19:44;;;;;;;;;;;1.20;99.90;;;;;;5036757;28;19912;-76
2023/01/17 06:22:10;;;;;;;;;;;1.20;99.90;;;;;;5036707;28;19905;-77
2023/01/17 06:24:35;;;;;;;;;;;1.20;99.90;;;;;;5036155;28;20275;-76
2023/01/17 06:27:04;;;;;;;;;;;1.10;99.90;;;;;;5035926;28;19905;-75
2023/01/17 06:29:29;;;;;;;;;;;1.00;99.90;;;;;;5036426;28;20356;-77
2023/01/17 06:31:55;;;;;;;;;;;0.90;99.90;;;;;;5018206;28;19905;-77
2023/01/17 06:34:22;;;;;;;;;;;0.80;99.90;;;;;;5018493;28;19912;-77
2023/01/17 06:36:48;;;;;;;;;;;0.70;99.90;;;;;;5036320;28;19909;-77
2023/01/17 06:39:13;;;;;;;;;;;0.60;99.90;;;;;;5018968;28;19905;-76
2023/01/17 06:41:39;;;;;;;;;;;0.60;99.90;;;;;;5018185;28;19912;-76
2023/01/17 06:44:11;;;;;;;;;;;0.50;99.90;;;;;;5035570;28;20276;-77
2023/01/17 06:46:36;;;;;;;;;;;1.80;99.90;;;;;;5018102;28;19905;-77
2023/01/17 06:49:02;;;;;;;;;;;0.40;99.90;;;;;;5036034;28;19905;-77
2023/01/17 06:51:27;;;;;;;;;;;0.30;99.90;;;;;;5035565;28;19905;-77
2023/01/17 06:53:53;;;;;;;;;;;0.40;99.90;;;;;;5036033;28;19909;-77
2023/01/17 06:56:19;;;;;;;;;;;0.40;99.90;;;;;;5035782;28;19920;-77
2023/01/17 06:58:47;;;;;;;;;;;0.40;99.90;;;;;;5017634;28;20368;-77
2023/01/17 07:01:15;;;;;;;;;;;2.50;99.90;;;;;;5035498;28;19952;-77
2023/01/17 07:03:51;;;;;;;;;;;0.20;99.90;;;;;;5035990;28;19915;-77
2023/01/17 07:06:17;;;;;;;;;;;0.20;99.90;;;;;;5036760;28;20283;-77
2023/01/17 07:08:42;;;;;;;;;;;0.20;99.90;;;;;;5037668;28;19912;-77
2023/01/17 07:11:08;;;;;;;;;;;0.20;99.90;;;;;;5037046;28;19931;-77
2023/01/17 07:13:37;;;;;;;;;;;0.30;99.90;;;;;;5037710;28;19912;-77
2023/01/17 07:16:03;;;;;;;;;;;0.20;99.90;;;;;;5037483;28;19909;-77
2023/01/17 07:18:35;;;;;;;;;;;0.20;99.90;;;;;;5038061;28;20006;-77
2023/01/17 07:21:02;;;;;;;;;;;0.20;99.90;;;;;;5019605;28;19951;-77
2023/01/17 07:23:27;;;;;;;;;;;0.20;99.90;;;;;;5037400;28;19905;-76
2023/01/17 07:25:54;;;;;;;;;;;0.30;99.90;;;;;;5036094;28;20315;-77
2023/01/17 07:28:20;;;;;;;;;;;0.30;99.90;;;;;;5036647;28;20398;-77
2023/01/17 07:30:45;;;;;;;;;;;0.30;99.90;;;;;;5019341;28;19955;-77
2023/01/17 07:33:11;;;;;;;;;;;0.30;99.90;;;;;;5037373;28;20332;-77
2023/01/17 07:35:36;;;;;;;;;;;0.30;99.90;;;;;;5019010;28;19912;-77
2023/01/17 07:38:02;;;;;;;;;;;0.30;99.90;;;;;;5018916;28;19996;-77
2023/01/17 07:40:28;;;;;;;;;;;0.30;99.90;;;;;;5036167;28;19905;-77
2023/01/17 07:42:59;;;;;;;;;;;0.30;99.90;;;;;;5018544;28;19905;-77
2023/01/17 07:45:24;;;;;;;;;;;0.30;99.90;;;;;;5018282;28;19905;-77
2023/01/17 07:47:50;;;;;;;;;;;0.30;99.90;;;;;;5036822;28;19927;-77
2023/01/17 07:50:15;;;;;;;;;;;0.30;99.90;;;;;;5018930;28;20042;-77
2023/01/17 07:52:47;;;;;;;;;;;0.30;99.90;;;;;;5036250;28;20000;-77
2023/01/17 07:55:13;;;;;;;;;;;3.60;99.90;;;;;;5018865;28;19951;-77
2023/01/17 07:57:41;;;;;;;;;;;0.30;99.90;;;;;;5018196;28;19913;-77
2023/01/17 08:00:08;;;;;;;;;;;0.40;99.90;;;;;;5017323;28;20000;-77
2023/01/17 08:02:34;;;;;;;;;;;0.40;99.90;;;;;;5016983;28;19913;-76
2023/01/17 08:04:59;;;;;;;;;;;0.40;99.90;;;;;;5035384;28;20014;-76
2023/01/17 08:07:25;;;;;;;;;;;0.40;99.90;;;;;;5035662;28;19905;-76
2023/01/17 08:09:53;;;;;;;;;;;0.40;99.90;;;;;;5036679;28;20379;-77
2023/01/17 08:12:18;;;;;;;;;;;0.40;99.90;;;;;;5039237;28;20454;-77
2023/01/17 08:14:47;;;;;;;;;;;0.50;99.90;;;;;;5039352;28;19909;-77
2023/01/17 08:17:13;;;;;;;;;;;0.50;99.90;;;;;;5039418;28;19909;-77
2023/01/17 08:19:39;;;;;;;;;;;0.60;99.90;;;;;;5021036;28;19905;-77
2023/01/17 08:22:05;;;;;;;;;;;0.60;99.90;;;;;;5021099;28;19999;-77
2023/01/17 08:24:30;;;;;;;;;;;0.60;99.90;;;;;;5038935;28;19912;-76
2023/01/17 08:26:56;;;;;;;;;;;0.70;99.90;;;;;;5039178;28;19905;-77
2023/01/17 08:29:24;;;;;;;;;;;0.70;99.90;;;;;;5020809;28;19905;-77
2023/01/17 08:31:55;;;;;;;;;;;0.70;99.90;;;;;;5038921;28;19909;-76
2023/01/17 08:34:21;;;;;;;;;;;1.40;99.90;;;;;;5038575;28;19905;-76
2023/01/17 08:36:46;;;;;;;;;;;0.70;99.90;;;;;;5038475;28;19924;-76
2023/01/17 08:39:12;;;;;;;;;;;0.70;99.90;;;;;;5020348;28;19928;-76
2023/01/17 08:41:38;;;;;;;;;;;0.70;99.90;;;;;;5038649;28;20268;-76
2023/01/17 08:44:03;;;;;;;;;;;0.70;99.90;;;;;;5038962;28;19913;-76
2023/01/17 08:46:29;;;;;;;;;;;1.60;99.90;;;;;;5038722;28;20279;-76
2023/01/17 08:48:58;;;;;;;;;;;0.80;99.90;;;;;;5039188;28;19905;-76
2023/01/17 08:51:25;;;;;;;;;;;3.40;99.90;;;;;;5039220;28;19905;-77
2023/01/17 08:53:51;;;;;;;;;;;0.80;99.90;;;;;;5021283;28;19905;-76
2023/01/17 08:56:17;;;;;;;;;;;0.80;99.90;;;;;;5020917;28;20394;-76
2023/01/17 08:58:43;;;;;;;;;;;0.80;99.90;;;;;;5038689;28;19905;-76
2023/01/17 09:01:08;;;;;;;;;;;0.80;99.90;;;;;;5039253;28;20074;-76
2023/01/17 09:03:34;;;;;;;;;;;0.90;99.90;;;;;;5020922;28;19905;-76
2023/01/17 09:06:03;;;;;;;;;;;0.90;99.90;;;;;;5038400;28;20447;-76
2023/01/17 09:08:29;;;;;;;;;;;0.90;99.90;;;;;;5020513;28;19909;-77
2023/01/17 09:10:54;;;;;;;;;;;1.00;99.90;;;;;;5045501;23;19893;-76
2023/01/17 09:13:20;;;;;;;;;;;1.00;99.90;;;;;;5020309;28;19920;-77
2023/01/17 09:15:45;;;;;;;;;;;1.10;99.90;;;;;;5038032;28;19958;-77
2023/01/17 09:18:10;;;;;;;;;;;1.20;99.90;;;;;;5037816;28;19909;-77
2023/01/17 09:20:36;;;;;;;;;;;1.30;99.90;;;;;;5037677;28;19928;-77
2023/01/17 09:23:02;;;;;;;;;;;1.40;99.90;;;;;;5037434;28;20007;-77
2023/01/17 09:25:28;;;;;;;;;;;1.50;99.90;;;;;;5019484;28;19905;-77
2023/01/17 09:27:53;;;;;;;;;;;1.60;99.90;;;;;;5020638;28;19935;-77
2023/01/17 09:30:19;;;;;;;;;;;1.70;99.90;;;;;;5019631;28;20003;-77
2023/01/17 09:32:50;;;;;;;;;;;1.70;99.90;;;;;;5038009;28;19996;-77
2023/01/17 09:35:17;;;;;;;;;;;1.80;99.90;;;;;;5037818;28;19905;-77
2023/01/17 09:37:42;;;;;;;;;;;1.80;99.90;;;;;;5037940;28;20364;-77
2023/01/17 09:40:11;;;;;;;;;;;1.80;99.90;;;;;;5038432;28;19920;-77
2023/01/17 09:42:38;;;;;;;;;;;1.80;99.90;;;;;;5037885;28;20331;-77
2023/01/17 09:45:08;;;;;;;;;;;1.90;99.90;;;;;;5020001;28;19944;-77
2023/01/17 09:47:40;;;;;;;;;;;1.90;99.90;;;;;;5037517;28;19905;-77
2023/01/17 09:50:19;;;;;;;;;;;2.00;99.90;;;;;;5038042;28;19954;-77
2023/01/17 09:52:45;;;;;;;;;;;2.00;99.90;;;;;;5038083;28;19905;-77
2023/01/17 09:55:14;;;;;;;;;;;2.00;99.90;;;;;;5037800;28;19931;-77
2023/01/17 09:57:45;;;;;;;;;;;2.10;99.90;;;;;;5036736;28;19909;-77
2023/01/17 10:00:32;;;;;;;;;;;2.10;99.90;;;;;;5036831;28;20043;-77
2023/01/17 10:03:16;;;;;;;;;;;2.20;99.90;;;;;;5018856;28;19934;-77
2023/01/17 10:05:52;;;;;;;;;;;2.30;99.90;;;;;;5036653;28;19950;-77
2023/01/17 10:08:25;;;;;;;;;;;2.30;99.90;;;;;;5037408;28;19905;-77
2023/01/17 10:11:11;;;;;;;;;;;2.40;99.90;;;;;;5036631;28;19916;-77
2023/01/17 10:13:42;;;;;;;;;;;2.50;99.90;;;;;;5004362;28;19915;-77
2023/01/17 10:16:11;;;;;;;;;;;2.50;99.90;;;;;;5035862;28;19916;-77
2023/01/17 10:18:39;;;;;;;;;;;2.60;99.90;;;;;;5036114;28;19905;-77
2023/01/17 10:21:04;;;;;;;;;;;2.80;99.90;;;;;;5018159;28;19912;-77
2023/01/17 10:23:33;;;;;;;;;;;2.90;99.90;;;;;;5018579;28;19913;-77
2023/01/17 10:26:01;;;;;;;;;;;3.00;99.90;;;;;;5035885;28;19905;-77
2023/01/17 10:28:31;;;;;;;;;;;2.90;99.90;;;;;;5036307;28;20352;-77
2023/01/17 10:30:58;;;;;;;;;;;2.90;99.90;;;;;;5035902;28;19911;-77
2023/01/17 10:33:27;;;;;;;;;;;4.20;99.90;;;;;;5018255;28;19905;-77
2023/01/17 10:35:55;;;;;;;;;;;2.90;99.90;;;;;;5036692;28;19912;-77
2023/01/17 10:38:32;;;;;;;;;;;2.90;99.90;;;;;;5018660;28;19996;-77
2023/01/17 10:41:04;;;;;;;;;;;2.90;99.90;;;;;;5019637;28;20007;-77
2023/01/17 10:43:43;;;;;;;;;;;2.90;99.90;;;;;;5018781;28;19959;-77
2023/01/17 10:46:14;;;;;;;;;;;2.90;99.90;;;;;;5036057;28;19920;-77
2023/01/17 10:48:44;;;;;;;;;;;2.90;99.90;;;;;;5018408;28;19908;-77
2023/01/17 10:51:12;;;;;;;;;;;3.00;99.90;;;;;;5036972;28;20352;-78
2023/01/17 10:54:13;;;;;;;;;;;3.00;99.90;;;;;;5036405;28;19905;-77
2023/01/17 10:56:40;;;;;;;;;;;3.00;99.90;;;;;;4940276;29;20013;-77
2023/01/17 10:59:17;;;;;;;;;;;3.10;99.90;;;;;;5003429;28;19905;-77
2023/01/17 11:01:42;;;;;;;;;;;3.00;99.90;;;;;;5018339;28;19905;-77
2023/01/17 11:04:19;;;;;;;;;;;3.00;99.90;;;;;;5036333;28;20339;-77
2023/01/17 11:06:46;;;;;;;;;;;2.90;99.90;;;;;;5036780;28;19996;-77
2023/01/17 11:09:12;;;;;;;;;;;2.80;99.90;;;;;;5034974;28;19909;-77
2023/01/17 11:11:44;;;;;;;;;;;2.70;99.90;;;;;;5035594;28;20007;-77
2023/01/17 11:14:16;;;;;;;;;;;2.70;99.90;;;;;;5017612;28;20008;-77
2023/01/17 11:16:45;;;;;;;;;;;2.40;99.90;;;;;;5017440;28;19920;-77
2023/01/17 11:19:31;;;;;;;;;;;2.70;99.90;;;;;;5017107;28;19925;-77
2023/01/17 11:24:38;;;;;;;;;;;2.50;99.90;;;;;;5034695;28;20399;-77
2023/01/17 11:27:04;;;;;;;;;;;2.50;99.90;;;;;;5017121;28;20010;-77
2023/01/17 11:29:31;;;;;;;;;;;2.50;99.90;;;;;;5033525;28;19905;-77
2023/01/17 11:32:16;;;;;;;;;;;2.50;99.90;;;;;;5035108;28;19909;-76
2023/01/17 11:34:42;;;;;;;;;;;2.50;99.90;;;;;;5035132;28;19971;-76
2023/01/17 11:37:13;;;;;;;;;;;2.40;99.90;;;;;;5034700;28;19909;-76
2023/01/17 11:39:38;;;;;;;;;;;2.40;99.90;;;;;;5035101;28;19905;-77
2023/01/17 11:42:04;;;;;;;;;;;2.40;99.90;;;;;;5034580;28;19927;-77
2023/01/17 11:44:34;;;;;;;;;;;2.50;99.90;;;;;;5018280;28;20330;-76
2023/01/17 11:47:06;;;;;;;;;;;2.70;99.90;;;;;;5020974;28;20329;-76
2023/01/17 11:49:31;;;;;;;;;;;3.00;99.90;;;;;;5038053;28;19905;-77
2023/01/17 11:51:56;;;;;;;;;;;3.00;99.90;;;;;;5021736;28;19967;-76
2023/01/17 11:54:27;;;;;;;;;;;3.10;99.90;;;;;;5021051;28;19909;-76
2023/01/17 11:56:59;;;;;;;;;;;3.30;99.90;;;;;;5038728;28;19909;-76
2023/01/17 11:59:36;;;;;;;;;;;3.50;99.90;;;;;;5038483;28;20352;-76
2023/01/17 12:02:19;;;;;;;;;;;3.60;99.90;;;;;;5038474;28;19905;-76
2023/01/17 12:05:00;;;;;;;;;;;3.70;99.90;;;;;;5038297;28;19905;-76
2023/01/17 12:07:25;;;;;;;;;;;3.80;99.90;;;;;;5039334;28;19992;-76
2023/01/17 12:09:50;;;;;;;;;;;3.90;99.90;;;;;;5038252;28;19951;-76
2023/01/17 12:15:32;;;;;;;;;;;4.10;99.90;;;;;;5038957;28;19944;-77
2023/01/17 12:18:16;;;;;;;;;;;4.20;99.90;;;;;;5021017;28;19915;-76
2023/01/17 12:21:02;;;;;;;;;;;4.20;99.90;;;;;;5038141;28;19905;-77
2023/01/17 12:23:39;;;;;;;;;;;4.30;99.90;;;;;;5033710;28;19913;-77
2023/01/17 12:26:10;;;;;;;;;;;4.50;99.90;;;;;;5037950;28;19904;-77
2023/01/17 12:28:51;;;;;;;;;;;4.60;99.90;;;;;;5037359;28;19912;-77
2023/01/17 12:31:23;;;;;;;;;;;4.80;99.90;;;;;;5019453;28;20356;-78
2023/01/17 12:33:55;;;;;;;;;;;4.90;99.90;;;;;;5019795;28;19911;-76
2023/01/17 12:36:20;;;;;;;;;;;5.00;99.90;;;;;;5039101;28;19913;-76
2023/01/17 12:38:46;;;;;;;;;;;5.10;99.90;;;;;;5020390;28;19905;-76
2023/01/17 12:41:25;;;;;;;;;;;5.10;99.90;;;;;;5038409;28;19905;-76
2023/01/17 12:43:55;;;;;;;;;;;5.00;99.90;;;;;;5037866;28;19905;-77
2023/01/17 12:46:25;;;;;;;;;;;5.00;99.90;;;;;;5020418;28;19928;-76
2023/01/17 12:49:14;;;;;;;;;;;5.20;99.90;;;;;;5020319;28;19905;-76
2023/01/17 12:51:41;;;;;;;;;;;5.20;99.90;;;;;;5037580;28;19909;-77
2023/01/17 12:54:14;;;;;;;;;;;5.30;99.90;;;;;;5019868;28;19963;-76
2023/01/17 12:56:43;;;;;;;;;;;5.40;99.90;;;;;;5020016;28;19913;-76
2023/01/17 12:59:14;;;;;;;;;;;5.40;99.90;;;;;;5019969;28;20363;-76
2023/01/17 13:01:42;;;;;;;;;;;5.50;99.90;;;;;;5037170;28;19929;-77
2023/01/17 13:04:21;;;;;;;;;;;5.70;99.90;;;;;;5036269;28;19932;-76
2023/01/17 13:06:59;;;;;;;;;;;5.60;99.90;;;;;;5036435;28;19905;-76
2023/01/17 13:09:28;;;;;;;;;;;5.80;99.90;;;;;;5018758;28;19912;-76
2023/01/17 13:11:56;;;;;;;;;;;5.80;99.90;;;;;;5036509;28;20371;-76
2023/01/17 13:14:22;;;;;;;;;;;5.70;99.90;;;;;;5036933;28;19924;-77
2023/01/17 13:16:52;;;;;;;;;;;5.80;99.90;;;;;;5036566;28;19915;-76
2023/01/17 13:19:36;;;;;;;;;;;5.80;99.90;;;;;;5018394;28;19927;-77
2023/01/17 13:22:05;;;;;;;;;;;5.70;99.90;;;;;;5036362;28;20371;-76
2023/01/17 13:24:49;;;;;;;;;;;5.90;99.90;;;;;;5018816;28;20427;-76
2023/01/17 13:27:23;;;;;;;;;;;6.00;99.90;;;;;;5019099;28;20272;-76
2023/01/17 13:30:00;;;;;;;;;;;6.10;99.90;;;;;;5036108;28;20007;-76
2023/01/17 13:32:48;;;;;;;;;;;6.00;99.90;;;;;;5018194;28;19955;-77
2023/01/17 13:35:46;;;;;;;;;;;6.00;99.90;;;;;;5035941;28;20280;-77
2023/01/17 13:38:12;;;;;;;;;;;6.10;99.90;;;;;;5006753;28;19909;-79
2023/01/17 13:40:43;;;;;;;;;;;6.30;99.90;;;;;;5035998;28;19912;-77
2023/01/17 13:43:13;;;;;;;;;;;6.40;99.90;;;;;;5035670;28;19905;-77
2023/01/17 13:45:39;;;;;;;;;;;6.40;99.90;;;;;;5017800;28;19905;-77
2023/01/17 13:48:10;;;;;;;;;;;6.40;99.90;;;;;;5017714;28;20387;-77
2023/01/17 13:50:39;;;;;;;;;;;6.30;99.90;;;;;;5017667;28;19905;-77
2023/01/17 13:53:23;;;;;;;;;;;6.10;99.90;;;;;;5036116;28;19952;-77
2023/01/17 13:55:52;;;;;;;;;;;6.00;99.90;;;;;;5035425;28;19940;-76
2023/01/17 13:58:28;;;;;;;;;;;5.70;99.90;;;;;;5036946;28;19972;-77
2023/01/17 14:00:53;;;;;;;;;;;5.60;99.90;;;;;;5018067;28;19913;-76
2023/01/17 14:03:39;;;;;;;;;;;5.50;99.90;;;;;;5035904;28;19913;-77
2023/01/17 14:06:24;;;;;;;;;;;5.60;99.90;;;;;;5035420;28;20015;-77
2023/01/17 14:08:51;;;;;;;;;;;5.80;99.90;;;;;;5016838;28;19908;-77
2023/01/17 14:11:16;;;;;;;;;;;6.00;99.90;;;;;;5017492;28;20370;-77
2023/01/17 14:13:42;;;;;;;;;;;6.30;99.90;;;;;;5018815;28;19948;-78
2023/01/17 14:16:19;;;;;;;;;;;8.90;99.90;;;;;;5021993;28;19905;-78
2023/01/17 14:18:45;;;;;;;;;;;6.90;99.90;;;;;;5026759;28;19968;-78
2023/01/17 14:21:24;;;;;;;;;;;7.20;99.90;;;;;;5044232;28;19928;-78
2023/01/17 14:23:54;;;;;;;;;;;7.40;99.90;;;;;;5042568;28;19924;-79
2023/01/17 14:26:22;;;;;;;;;;;7.30;99.90;;;;;;5042712;28;20295;-78
2023/01/17 14:28:47;;;;;;;;;;;7.20;99.90;;;;;;5026476;28;19909;-78
2023/01/17 14:31:14;;;;;;;;;;;6.90;99.90;;;;;;5020624;28;19905;-78
2023/01/17 14:33:40;;;;;;;;;;;6.90;99.90;;;;;;5019871;28;20292;-78
2023/01/17 14:36:13;;;;;;;;;;;6.90;99.90;;;;;;5020785;28;19905;-78
2023/01/17 14:38:45;;;;;;;;;;;7.00;99.90;;;;;;5039687;28;19999;-77
2023/01/17 14:41:17;;;;;;;;;;;7.10;99.90;;;;;;5021687;28;20043;-76
2023/01/17 14:43:44;;;;;;;;;;;7.10;99.90;;;;;;5020514;28;19905;-76
2023/01/17 14:46:25;;;;;;;;;;;7.10;99.90;;;;;;5018281;28;19909;-77
2023/01/17 14:48:57;;;;;;;;;;;7.20;99.90;;;;;;5019821;28;20352;-79
2023/01/17 14:51:23;;;;;;;;;;;7.40;99.90;;;;;;5036022;28;20363;-79
2023/01/17 14:54:15;;;;;;;;;;;9.90;99.90;;;;;;5018357;28;20367;-79
2023/01/17 14:56:40;;;;;;;;;;;7.30;99.90;;;;;;5033753;28;20121;-79
2023/01/17 14:59:21;;;;;;;;;;;7.10;99.90;;;;;;5035790;28;20366;-78
2023/01/17 15:01:51;;;;;;;;;;;6.90;99.90;;;;;;5020594;28;19992;-78
2023/01/17 15:04:26;;;;;;;;;;;6.80;99.90;;;;;;5035120;28;19905;-78
2023/01/17 15:06:53;;;;;;;;;;;6.70;99.90;;;;;;5034797;28;19996;-79
2023/01/17 15:09:20;;;;;;;;;;;6.40;99.90;;;;;;5017006;28;19905;-78
2023/01/17 15:11:46;;;;;;;;;;;6.20;99.90;;;;;;5016529;28;19936;-78
2023/01/17 15:14:23;;;;;;;;;;;5.90;99.90;;;;;;5034296;28;19928;-79
2023/01/17 15:16:51;;;;;;;;;;;5.80;99.90;;;;;;5017489;28;20398;-79
2023/01/17 15:19:18;;;;;;;;;;;5.60;99.90;;;;;;5035376;28;19940;-78
2023/01/17 15:21:45;;;;;;;;;;;6.10;99.90;;;;;;5016440;28;19932;-78
2023/01/17 15:24:18;;;;;;;;;;;5.20;99.90;;;;;;5016593;28;19917;-78
2023/01/17 15:26:44;;;;;;;;;;;5.00;99.90;;;;;;5035165;28;19930;-78
2023/01/17 15:29:29;;;;;;;;;;;4.70;99.90;;;;;;5034200;28;19909;-77
2023/01/17 15:31:58;;;;;;;;;;;4.60;99.90;;;;;;5034218;28;19940;-78
2023/01/17 15:34:37;;;;;;;;;;;4.40;99.90;;;;;;5016603;28;19912;-78
2023/01/17 15:37:04;;;;;;;;;;;4.20;99.90;;;;;;5034185;28;20030;-77
2023/01/17 15:39:34;;;;;;;;;;;3.90;99.90;;;;;;5034560;28;19916;-78
2023/01/17 15:42:05;;;;;;;;;;;3.90;99.90;;;;;;5016453;28;19960;-78
2023/01/17 15:44:30;;;;;;;;;;;3.70;99.90;;;;;;5034174;28;19912;-78